sensor_id;sensor_type;location;lat;lon;timestamp;P1;durP1;ratioP1;P2;durP2;ratioP2
62925;SDS011;55732;52.248;-0.844;2023-03-31T00:01:23;8.30;;;2.10;;
62925;SDS011;55732;52.248;-0.844;2023-03-31T00:03:49;7.80;;;2.60;;
62925;SDS011;55732;52.248;-0.844;2023-03-31T00:06:15;8.60;;;1.90;;
62925;SDS011;55732;52.248;-0.844;2023-03-31T00:08:43;6.30;;;1.70;;
62925;SDS011;55732;52.248;-0.844;2023-03-31T00:11:10;6.30;;;1.60;;
62925;SDS011;55732;52.248;-0.844;2023-03-31T00:13:36;7.30;;;2.10;;
62925;SDS011;55732;52.248;-0.844;2023-03-31T00:16:03;7.40;;;2.10;;
62925;SDS011;55732;52.248;-0.844;2023-03-31T00:18:31;4.60;;;1.60;;
62925;SDS011;55732;52.248;-0.844;2023-03-31T00:21:10;7.90;;;1.70;;
62925;SDS011;55732;52.248;-0.844;2023-03-31T00:23:39;5.40;;;1.60;;
62925;SDS011;55732;52.248;-0.844;2023-03-31T00:26:05;8.90;;;1.80;;
62925;SDS011;55732;52.248;-0.844;2023-03-31T00:28:31;9.50;;;2.00;;
62925;SDS011;55732;52.248;-0.844;2023-03-31T00:31:00;5.40;;;1.90;;
62925;SDS011;55732;52.248;-0.844;2023-03-31T00:33:27;9.60;;;1.90;;
62925;SDS011;55732;52.248;-0.844;2023-03-31T00:35:54;5.10;;;1.80;;
62925;SDS011;55732;52.248;-0.844;2023-03-31T00:38:19;5.30;;;1.60;;
62925;SDS011;55732;52.248;-0.844;2023-03-31T00:40:46;7.20;;;1.70;;
62925;SDS011;55732;52.248;-0.844;2023-03-31T00:46:05;7.50;;;1.90;;
62925;SDS011;55732;52.248;-0.844;2023-03-31T00:48:46;7.50;;;1.80;;
62925;SDS011;55732;52.248;-0.844;2023-03-31T00:51:15;6.50;;;2.00;;
62925;SDS011;55732;52.248;-0.844;2023-03-31T00:53:42;5.90;;;1.70;;
62925;SDS011;55732;52.248;-0.844;2023-03-31T00:56:13;5.70;;;1.70;;
62925;SDS011;55732;52.248;-0.844;2023-03-31T01:01:09;4.10;;;1.60;;
62925;SDS011;55732;52.248;-0.844;2023-03-31T01:03:41;8.50;;;2.50;;
62925;SDS011;55732;52.248;-0.844;2023-03-31T01:06:09;4.80;;;2.00;;
62925;SDS011;55732;52.248;-0.844;2023-03-31T01:08:35;6.20;;;2.00;;
62925;SDS011;55732;52.248;-0.844;2023-03-31T01:11:03;3.80;;;1.70;;
62925;SDS011;55732;52.248;-0.844;2023-03-31T01:13:33;4.00;;;1.80;;
62925;SDS011;55732;52.248;-0.844;2023-03-31T01:16:01;5.30;;;1.60;;
62925;SDS011;55732;52.248;-0.844;2023-03-31T01:18:26;5.40;;;1.90;;
62925;SDS011;55732;52.248;-0.844;2023-03-31T01:28:40;7.50;;;2.10;;
62925;SDS011;55732;52.248;-0.844;2023-03-31T01:47:56;13.00;;;2.70;;
62925;SDS011;55732;52.248;-0.844;2023-03-31T01:50:39;7.20;;;1.80;;
62925;SDS011;55732;52.248;-0.844;2023-03-31T01:53:28;4.40;;;1.90;;
62925;SDS011;55732;52.248;-0.844;2023-03-31T01:58:48;6.10;;;1.70;;
62925;SDS011;55732;52.248;-0.844;2023-03-31T02:01:20;8.10;;;2.50;;
62925;SDS011;55732;52.248;-0.844;2023-03-31T02:03:54;6.50;;;1.90;;
62925;SDS011;55732;52.248;-0.844;2023-03-31T02:06:25;7.90;;;2.90;;
62925;SDS011;55732;52.248;-0.844;2023-03-31T02:08:56;9.50;;;2.30;;
62925;SDS011;55732;52.248;-0.844;2023-03-31T02:11:27;11.30;;;2.10;;
62925;SDS011;55732;52.248;-0.844;2023-03-31T02:13:54;7.50;;;2.10;;
62925;SDS011;55732;52.248;-0.844;2023-03-31T02:16:23;5.90;;;3.10;;
62925;SDS011;55732;52.248;-0.844;2023-03-31T02:18:53;7.10;;;2.30;;
62925;SDS011;55732;52.248;-0.844;2023-03-31T02:21:36;3.40;;;1.50;;
62925;SDS011;55732;52.248;-0.844;2023-03-31T02:26:36;5.50;;;1.70;;
62925;SDS011;55732;52.248;-0.844;2023-03-31T02:29:08;11.00;;;2.40;;
62925;SDS011;55732;52.248;-0.844;2023-03-31T02:34:25;9.70;;;2.20;;
62925;SDS011;55732;52.248;-0.844;2023-03-31T02:36:51;4.30;;;1.90;;
62925;SDS011;55732;52.248;-0.844;2023-03-31T02:39:18;8.90;;;2.00;;
62925;SDS011;55732;52.248;-0.844;2023-03-31T02:41:49;4.30;;;1.50;;
62925;SDS011;55732;52.248;-0.844;2023-03-31T02:44:14;4.40;;;1.90;;
62925;SDS011;55732;52.248;-0.844;2023-03-31T02:46:41;3.90;;;1.50;;
62925;SDS011;55732;52.248;-0.844;2023-03-31T02:49:09;3.90;;;1.50;;
62925;SDS011;55732;52.248;-0.844;2023-03-31T03:02:06;5.80;;;2.10;;
62925;SDS011;55732;52.248;-0.844;2023-03-31T03:04:48;6.40;;;1.80;;
62925;SDS011;55732;52.248;-0.844;2023-03-31T03:15:55;6.40;;;1.50;;
62925;SDS011;55732;52.248;-0.844;2023-03-31T03:18:27;6.20;;;1.70;;
62925;SDS011;55732;52.248;-0.844;2023-03-31T03:20:53;6.60;;;2.20;;
62925;SDS011;55732;52.248;-0.844;2023-03-31T03:23:19;4.60;;;1.60;;
62925;SDS011;55732;52.248;-0.844;2023-03-31T03:25:44;8.50;;;1.90;;
62925;SDS011;55732;52.248;-0.844;2023-03-31T03:28:11;4.50;;;1.40;;
62925;SDS011;55732;52.248;-0.844;2023-03-31T03:30:36;2.90;;;1.60;;
62925;SDS011;55732;52.248;-0.844;2023-03-31T03:33:02;2.90;;;1.30;;
62925;SDS011;55732;52.248;-0.844;2023-03-31T03:35:31;2.00;;;1.40;;
62925;SDS011;55732;52.248;-0.844;2023-03-31T03:37:57;6.10;;;1.60;;
62925;SDS011;55732;52.248;-0.844;2023-03-31T03:40:23;5.20;;;1.90;;
62925;SDS011;55732;52.248;-0.844;2023-03-31T03:42:48;4.80;;;1.50;;
62925;SDS011;55732;52.248;-0.844;2023-03-31T03:45:13;6.40;;;1.60;;
62925;SDS011;55732;52.248;-0.844;2023-03-31T03:47:39;9.40;;;1.60;;
62925;SDS011;55732;52.248;-0.844;2023-03-31T03:50:05;6.50;;;1.60;;
62925;SDS011;55732;52.248;-0.844;2023-03-31T03:52:31;4.60;;;1.60;;
62925;SDS011;55732;52.248;-0.844;2023-03-31T03:54:56;4.60;;;1.90;;
62925;SDS011;55732;52.248;-0.844;2023-03-31T03:57:22;4.90;;;1.70;;
62925;SDS011;55732;52.248;-0.844;2023-03-31T03:59:47;5.70;;;1.90;;
62925;SDS011;55732;52.248;-0.844;2023-03-31T04:02:13;8.80;;;2.90;;
62925;SDS011;55732;52.248;-0.844;2023-03-31T04:04:38;5.30;;;1.90;;
62925;SDS011;55732;52.248;-0.844;2023-03-31T04:07:03;7.80;;;1.80;;
62925;SDS011;55732;52.248;-0.844;2023-03-31T04:09:29;6.90;;;1.90;;
62925;SDS011;55732;52.248;-0.844;2023-03-31T04:11:55;7.90;;;1.80;;
62925;SDS011;55732;52.248;-0.844;2023-03-31T04:14:20;6.90;;;1.80;;
62925;SDS011;55732;52.248;-0.844;2023-03-31T04:16:46;10.20;;;2.70;;
62925;SDS011;55732;52.248;-0.844;2023-03-31T04:19:12;6.90;;;1.80;;
62925;SDS011;55732;52.248;-0.844;2023-03-31T04:21:41;4.90;;;1.70;;
62925;SDS011;55732;52.248;-0.844;2023-03-31T04:26:36;9.30;;;2.10;;
62925;SDS011;55732;52.248;-0.844;2023-03-31T04:29:10;5.90;;;2.00;;
62925;SDS011;55732;52.248;-0.844;2023-03-31T04:31:38;6.60;;;1.90;;
62925;SDS011;55732;52.248;-0.844;2023-03-31T04:34:07;7.40;;;2.20;;
62925;SDS011;55732;52.248;-0.844;2023-03-31T04:36:41;5.00;;;1.70;;
62925;SDS011;55732;52.248;-0.844;2023-03-31T04:39:11;5.10;;;1.90;;
62925;SDS011;55732;52.248;-0.844;2023-03-31T04:41:37;6.20;;;1.70;;
62925;SDS011;55732;52.248;-0.844;2023-03-31T04:44:03;9.90;;;1.90;;
62925;SDS011;55732;52.248;-0.844;2023-03-31T04:46:28;8.50;;;2.30;;
62925;SDS011;55732;52.248;-0.844;2023-03-31T04:48:54;6.70;;;2.00;;
62925;SDS011;55732;52.248;-0.844;2023-03-31T04:51:19;9.90;;;2.10;;
62925;SDS011;55732;52.248;-0.844;2023-03-31T04:53:45;6.10;;;1.60;;
62925;SDS011;55732;52.248;-0.844;2023-03-31T04:56:11;7.50;;;1.90;;
62925;SDS011;55732;52.248;-0.844;2023-03-31T04:58:37;5.40;;;1.90;;
62925;SDS011;55732;52.248;-0.844;2023-03-31T05:01:02;5.30;;;1.80;;
62925;SDS011;55732;52.248;-0.844;2023-03-31T05:03:32;7.60;;;2.00;;
62925;SDS011;55732;52.248;-0.844;2023-03-31T05:05:58;8.80;;;2.10;;
62925;SDS011;55732;52.248;-0.844;2023-03-31T05:08:24;6.60;;;2.50;;
62925;SDS011;55732;52.248;-0.844;2023-03-31T05:10:51;7.60;;;2.20;;
62925;SDS011;55732;52.248;-0.844;2023-03-31T05:13:17;7.60;;;2.10;;
62925;SDS011;55732;52.248;-0.844;2023-03-31T05:15:42;5.30;;;2.20;;
62925;SDS011;55732;52.248;-0.844;2023-03-31T05:18:09;10.20;;;2.40;;
62925;SDS011;55732;52.248;-0.844;2023-03-31T05:20:35;7.50;;;2.30;;
62925;SDS011;55732;52.248;-0.844;2023-03-31T05:23:01;10.60;;;2.00;;
62925;SDS011;55732;52.248;-0.844;2023-03-31T05:25:26;7.10;;;2.40;;
62925;SDS011;55732;52.248;-0.844;2023-03-31T05:27:56;7.00;;;2.10;;
62925;SDS011;55732;52.248;-0.844;2023-03-31T05:30:24;10.10;;;2.40;;
62925;SDS011;55732;52.248;-0.844;2023-03-31T05:32:50;8.70;;;2.30;;
62925;SDS011;55732;52.248;-0.844;2023-03-31T05:35:16;9.00;;;2.20;;
62925;SDS011;55732;52.248;-0.844;2023-03-31T05:37:42;7.90;;;2.30;;
62925;SDS011;55732;52.248;-0.844;2023-03-31T05:40:08;9.00;;;2.70;;
62925;SDS011;55732;52.248;-0.844;2023-03-31T05:42:34;10.50;;;2.40;;
62925;SDS011;55732;52.248;-0.844;2023-03-31T05:45:00;7.30;;;2.10;;
62925;SDS011;55732;52.248;-0.844;2023-03-31T05:47:25;9.20;;;2.30;;
62925;SDS011;55732;52.248;-0.844;2023-03-31T05:49:51;10.40;;;2.10;;
62925;SDS011;55732;52.248;-0.844;2023-03-31T05:52:17;11.70;;;2.20;;
62925;SDS011;55732;52.248;-0.844;2023-03-31T05:54:42;9.50;;;2.60;;
62925;SDS011;55732;52.248;-0.844;2023-03-31T05:57:08;9.70;;;2.60;;
62925;SDS011;55732;52.248;-0.844;2023-03-31T05:59:34;9.10;;;2.30;;
62925;SDS011;55732;52.248;-0.844;2023-03-31T06:02:00;9.20;;;2.00;;
62925;SDS011;55732;52.248;-0.844;2023-03-31T06:04:28;11.00;;;2.70;;
62925;SDS011;55732;52.248;-0.844;2023-03-31T06:06:56;7.10;;;2.00;;
62925;SDS011;55732;52.248;-0.844;2023-03-31T06:09:22;7.10;;;2.20;;
62925;SDS011;55732;52.248;-0.844;2023-03-31T06:11:48;8.50;;;2.00;;
62925;SDS011;55732;52.248;-0.844;2023-03-31T06:14:13;9.60;;;2.60;;
62925;SDS011;55732;52.248;-0.844;2023-03-31T06:16:39;13.30;;;3.10;;
62925;SDS011;55732;52.248;-0.844;2023-03-31T06:19:05;3.90;;;1.90;;
62925;SDS011;55732;52.248;-0.844;2023-03-31T06:21:30;10.50;;;2.20;;
62925;SDS011;55732;52.248;-0.844;2023-03-31T06:23:56;5.00;;;2.00;;
62925;SDS011;55732;52.248;-0.844;2023-03-31T06:26:22;9.10;;;2.50;;
62925;SDS011;55732;52.248;-0.844;2023-03-31T06:28:48;8.10;;;2.10;;
62925;SDS011;55732;52.248;-0.844;2023-03-31T06:31:14;6.00;;;2.10;;
62925;SDS011;55732;52.248;-0.844;2023-03-31T06:33:42;9.30;;;2.50;;
62925;SDS011;55732;52.248;-0.844;2023-03-31T06:36:08;6.30;;;2.00;;
62925;SDS011;55732;52.248;-0.844;2023-03-31T06:38:36;6.60;;;2.10;;
62925;SDS011;55732;52.248;-0.844;2023-03-31T06:41:02;5.40;;;2.00;;
62925;SDS011;55732;52.248;-0.844;2023-03-31T06:43:30;5.30;;;1.80;;
62925;SDS011;55732;52.248;-0.844;2023-03-31T06:45:55;6.40;;;2.20;;
62925;SDS011;55732;52.248;-0.844;2023-03-31T06:48:21;8.60;;;2.30;;
62925;SDS011;55732;52.248;-0.844;2023-03-31T06:50:47;12.10;;;2.50;;
62925;SDS011;55732;52.248;-0.844;2023-03-31T06:53:12;7.00;;;1.70;;
62925;SDS011;55732;52.248;-0.844;2023-03-31T06:55:38;5.00;;;1.70;;
62925;SDS011;55732;52.248;-0.844;2023-03-31T06:58:04;6.10;;;1.90;;
62925;SDS011;55732;52.248;-0.844;2023-03-31T07:00:31;8.70;;;2.20;;
62925;SDS011;55732;52.248;-0.844;2023-03-31T07:02:58;4.40;;;2.00;;
62925;SDS011;55732;52.248;-0.844;2023-03-31T07:05:24;4.40;;;1.70;;
62925;SDS011;55732;52.248;-0.844;2023-03-31T07:07:55;7.10;;;2.30;;
62925;SDS011;55732;52.248;-0.844;2023-03-31T07:10:23;5.40;;;1.70;;
62925;SDS011;55732;52.248;-0.844;2023-03-31T07:12:49;5.60;;;2.10;;
62925;SDS011;55732;52.248;-0.844;2023-03-31T07:15:15;7.00;;;1.80;;
62925;SDS011;55732;52.248;-0.844;2023-03-31T07:17:41;5.30;;;1.70;;
62925;SDS011;55732;52.248;-0.844;2023-03-31T07:20:10;7.10;;;1.90;;
62925;SDS011;55732;52.248;-0.844;2023-03-31T07:22:39;5.70;;;1.90;;
62925;SDS011;55732;52.248;-0.844;2023-03-31T07:25:06;9.70;;;2.10;;
62925;SDS011;55732;52.248;-0.844;2023-03-31T07:27:32;6.40;;;1.90;;
62925;SDS011;55732;52.248;-0.844;2023-03-31T07:29:57;4.80;;;2.10;;
62925;SDS011;55732;52.248;-0.844;2023-03-31T07:32:23;6.90;;;2.00;;
62925;SDS011;55732;52.248;-0.844;2023-03-31T07:34:48;6.90;;;2.00;;
62925;SDS011;55732;52.248;-0.844;2023-03-31T07:37:14;7.20;;;2.10;;
62925;SDS011;55732;52.248;-0.844;2023-03-31T07:39:40;9.90;;;2.20;;
62925;SDS011;55732;52.248;-0.844;2023-03-31T07:42:05;7.00;;;2.50;;
62925;SDS011;55732;52.248;-0.844;2023-03-31T07:44:34;11.90;;;2.70;;
62925;SDS011;55732;52.248;-0.844;2023-03-31T07:47:01;9.40;;;2.30;;
62925;SDS011;55732;52.248;-0.844;2023-03-31T07:49:30;11.00;;;2.30;;
62925;SDS011;55732;52.248;-0.844;2023-03-31T07:51:57;5.40;;;1.90;;
62925;SDS011;55732;52.248;-0.844;2023-03-31T07:54:23;7.30;;;2.00;;
62925;SDS011;55732;52.248;-0.844;2023-03-31T07:56:48;10.20;;;2.60;;
62925;SDS011;55732;52.248;-0.844;2023-03-31T07:59:14;5.80;;;2.00;;
62925;SDS011;55732;52.248;-0.844;2023-03-31T08:01:40;6.10;;;1.70;;
62925;SDS011;55732;52.248;-0.844;2023-03-31T08:04:05;10.20;;;2.00;;
62925;SDS011;55732;52.248;-0.844;2023-03-31T08:06:31;9.70;;;2.30;;
62925;SDS011;55732;52.248;-0.844;2023-03-31T08:08:56;6.30;;;2.40;;
62925;SDS011;55732;52.248;-0.844;2023-03-31T08:11:28;6.90;;;2.20;;
62925;SDS011;55732;52.248;-0.844;2023-03-31T08:13:54;11.10;;;2.50;;
62925;SDS011;55732;52.248;-0.844;2023-03-31T08:16:19;7.20;;;2.10;;
62925;SDS011;55732;52.248;-0.844;2023-03-31T08:18:45;5.90;;;1.90;;
62925;SDS011;55732;52.248;-0.844;2023-03-31T08:21:10;13.80;;;3.00;;
62925;SDS011;55732;52.248;-0.844;2023-03-31T08:23:36;8.20;;;2.80;;
62925;SDS011;55732;52.248;-0.844;2023-03-31T08:26:11;11.60;;;2.40;;
62925;SDS011;55732;52.248;-0.844;2023-03-31T08:28:41;11.40;;;2.40;;
62925;SDS011;55732;52.248;-0.844;2023-03-31T08:31:07;7.20;;;2.00;;
62925;SDS011;55732;52.248;-0.844;2023-03-31T08:33:34;6.90;;;2.10;;
62925;SDS011;55732;52.248;-0.844;2023-03-31T08:36:04;10.80;;;2.70;;
62925;SDS011;55732;52.248;-0.844;2023-03-31T08:38:33;12.30;;;2.40;;
62925;SDS011;55732;52.248;-0.844;2023-03-31T08:41:02;11.50;;;2.60;;
62925;SDS011;55732;52.248;-0.844;2023-03-31T08:43:34;8.20;;;2.00;;
62925;SDS011;55732;52.248;-0.844;2023-03-31T08:46:08;7.20;;;2.00;;
62925;SDS011;55732;52.248;-0.844;2023-03-31T08:48:41;7.80;;;2.00;;
62925;SDS011;55732;52.248;-0.844;2023-03-31T08:53:54;5.80;;;2.40;;
62925;SDS011;55732;52.248;-0.844;2023-03-31T08:56:24;8.50;;;2.20;;
62925;SDS011;55732;52.248;-0.844;2023-03-31T08:58:51;9.10;;;2.00;;
62925;SDS011;55732;52.248;-0.844;2023-03-31T09:09:44;5.20;;;1.80;;
62925;SDS011;55732;52.248;-0.844;2023-03-31T09:17:57;4.50;;;1.80;;
62925;SDS011;55732;52.248;-0.844;2023-03-31T09:20:33;3.30;;;1.50;;
62925;SDS011;55732;52.248;-0.844;2023-03-31T09:23:05;2.90;;;1.50;;
62925;SDS011;55732;52.248;-0.844;2023-03-31T09:25:49;4.70;;;2.00;;
62925;SDS011;55732;52.248;-0.844;2023-03-31T09:28:20;5.10;;;1.70;;
62925;SDS011;55732;52.248;-0.844;2023-03-31T09:30:48;2.60;;;1.40;;
62925;SDS011;55732;52.248;-0.844;2023-03-31T09:35:59;3.30;;;1.60;;
62925;SDS011;55732;52.248;-0.844;2023-03-31T09:38:26;3.40;;;1.50;;
62925;SDS011;55732;52.248;-0.844;2023-03-31T09:40:59;4.10;;;1.60;;
62925;SDS011;55732;52.248;-0.844;2023-03-31T09:43:27;3.90;;;1.40;;
62925;SDS011;55732;52.248;-0.844;2023-03-31T09:45:54;3.70;;;1.50;;
62925;SDS011;55732;52.248;-0.844;2023-03-31T09:48:28;3.90;;;1.30;;
62925;SDS011;55732;52.248;-0.844;2023-03-31T09:51:01;3.30;;;1.30;;
62925;SDS011;55732;52.248;-0.844;2023-03-31T09:56:32;3.90;;;1.50;;
62925;SDS011;55732;52.248;-0.844;2023-03-31T10:01:59;4.90;;;1.50;;
62925;SDS011;55732;52.248;-0.844;2023-03-31T10:04:28;2.40;;;1.20;;
62925;SDS011;55732;52.248;-0.844;2023-03-31T10:06:56;2.30;;;1.10;;
62925;SDS011;55732;52.248;-0.844;2023-03-31T10:09:30;1.90;;;1.40;;
62925;SDS011;55732;52.248;-0.844;2023-03-31T10:12:02;2.50;;;1.20;;
62925;SDS011;55732;52.248;-0.844;2023-03-31T10:17:11;2.30;;;1.20;;
62925;SDS011;55732;52.248;-0.844;2023-03-31T10:19:42;1.20;;;1.00;;
62925;SDS011;55732;52.248;-0.844;2023-03-31T10:22:31;1.20;;;0.90;;
62925;SDS011;55732;52.248;-0.844;2023-03-31T10:25:16;1.50;;;1.10;;
62925;SDS011;55732;52.248;-0.844;2023-03-31T10:27:46;3.70;;;1.30;;
62925;SDS011;55732;52.248;-0.844;2023-03-31T10:30:16;2.20;;;1.00;;
62925;SDS011;55732;52.248;-0.844;2023-03-31T10:32:46;1.40;;;1.10;;
62925;SDS011;55732;52.248;-0.844;2023-03-31T10:37:50;1.80;;;1.30;;
62925;SDS011;55732;52.248;-0.844;2023-03-31T10:40:22;2.90;;;1.30;;
62925;SDS011;55732;52.248;-0.844;2023-03-31T10:43:05;2.20;;;1.40;;
62925;SDS011;55732;52.248;-0.844;2023-03-31T10:45:43;2.50;;;1.00;;
62925;SDS011;55732;52.248;-0.844;2023-03-31T10:48:24;3.40;;;1.80;;
62925;SDS011;55732;52.248;-0.844;2023-03-31T10:50:52;4.10;;;1.20;;
62925;SDS011;55732;52.248;-0.844;2023-03-31T10:53:19;2.80;;;1.10;;
62925;SDS011;55732;52.248;-0.844;2023-03-31T10:55:55;3.00;;;1.20;;
62925;SDS011;55732;52.248;-0.844;2023-03-31T11:04:15;2.80;;;1.60;;
62925;SDS011;55732;52.248;-0.844;2023-03-31T11:10:17;1.80;;;1.20;;
62925;SDS011;55732;52.248;-0.844;2023-03-31T11:15:59;2.90;;;1.20;;
62925;SDS011;55732;52.248;-0.844;2023-03-31T11:29:41;1.10;;;1.10;;
62925;SDS011;55732;52.248;-0.844;2023-03-31T11:43:33;1.30;;;1.00;;
62925;SDS011;55732;52.248;-0.844;2023-03-31T11:46:27;3.30;;;1.10;;
62925;SDS011;55732;52.248;-0.844;2023-03-31T11:49:05;1.80;;;1.30;;
62925;SDS011;55732;52.248;-0.844;2023-03-31T11:51:54;1.70;;;1.00;;
62925;SDS011;55732;52.248;-0.844;2023-03-31T11:54:26;1.10;;;0.60;;
62925;SDS011;55732;52.248;-0.844;2023-03-31T11:56:58;1.70;;;0.70;;
62925;SDS011;55732;52.248;-0.844;2023-03-31T11:59:31;0.60;;;0.60;;
62925;SDS011;55732;52.248;-0.844;2023-03-31T12:04:49;1.00;;;0.60;;
62925;SDS011;55732;52.248;-0.844;2023-03-31T12:09:50;1.70;;;0.70;;
62925;SDS011;55732;52.248;-0.844;2023-03-31T12:12:30;0.70;;;0.70;;
62925;SDS011;55732;52.248;-0.844;2023-03-31T12:18:08;1.80;;;0.70;;
62925;SDS011;55732;52.248;-0.844;2023-03-31T12:20:53;0.80;;;0.80;;
62925;SDS011;55732;52.248;-0.844;2023-03-31T12:23:30;0.90;;;0.80;;
62925;SDS011;55732;52.248;-0.844;2023-03-31T12:28:37;1.70;;;0.80;;
62925;SDS011;55732;52.248;-0.844;2023-03-31T12:31:06;0.70;;;0.70;;
62925;SDS011;55732;52.248;-0.844;2023-03-31T12:33:42;3.20;;;1.00;;
62925;SDS011;55732;52.248;-0.844;2023-03-31T12:47:52;0.80;;;0.80;;
62925;SDS011;55732;52.248;-0.844;2023-03-31T12:50:34;1.20;;;1.00;;
62925;SDS011;55732;52.248;-0.844;2023-03-31T12:53:30;1.60;;;1.40;;
62925;SDS011;55732;52.248;-0.844;2023-03-31T12:56:05;2.40;;;1.40;;
62925;SDS011;55732;52.248;-0.844;2023-03-31T12:58:35;2.40;;;1.50;;
62925;SDS011;55732;52.248;-0.844;2023-03-31T13:01:03;1.50;;;1.40;;
62925;SDS011;55732;52.248;-0.844;2023-03-31T13:11:22;1.30;;;1.20;;
62925;SDS011;55732;52.248;-0.844;2023-03-31T13:14:18;1.30;;;1.20;;
62925;SDS011;55732;52.248;-0.844;2023-03-31T13:16:46;1.00;;;0.90;;
62925;SDS011;55732;52.248;-0.844;2023-03-31T13:28:09;1.20;;;1.10;;
62925;SDS011;55732;52.248;-0.844;2023-03-31T13:35:47;1.10;;;1.10;;
62925;SDS011;55732;52.248;-0.844;2023-03-31T14:07:16;1.60;;;1.30;;
62925;SDS011;55732;52.248;-0.844;2023-03-31T14:09:45;1.60;;;1.50;;
62925;SDS011;55732;52.248;-0.844;2023-03-31T14:14:55;2.60;;;1.60;;
62925;SDS011;55732;52.248;-0.844;2023-03-31T14:17:22;3.00;;;1.50;;
62925;SDS011;55732;52.248;-0.844;2023-03-31T14:23:04;2.10;;;1.40;;
62925;SDS011;55732;52.248;-0.844;2023-03-31T14:39:51;2.20;;;1.40;;
62925;SDS011;55732;52.248;-0.844;2023-03-31T14:42:22;3.80;;;1.50;;
62925;SDS011;55732;52.248;-0.844;2023-03-31T14:45:23;2.80;;;1.50;;
62925;SDS011;55732;52.248;-0.844;2023-03-31T14:50:37;3.30;;;1.50;;
62925;SDS011;55732;52.248;-0.844;2023-03-31T14:53:18;3.10;;;1.70;;
62925;SDS011;55732;52.248;-0.844;2023-03-31T14:55:48;3.60;;;2.00;;
62925;SDS011;55732;52.248;-0.844;2023-03-31T14:58:18;4.10;;;1.90;;
62925;SDS011;55732;52.248;-0.844;2023-03-31T15:00:51;4.00;;;1.90;;
62925;SDS011;55732;52.248;-0.844;2023-03-31T15:03:18;3.50;;;2.20;;
62925;SDS011;55732;52.248;-0.844;2023-03-31T15:05:43;3.20;;;2.10;;
62925;SDS011;55732;52.248;-0.844;2023-03-31T15:08:11;2.90;;;1.80;;
62925;SDS011;55732;52.248;-0.844;2023-03-31T15:10:42;3.50;;;1.60;;
62925;SDS011;55732;52.248;-0.844;2023-03-31T15:18:58;2.60;;;1.60;;
62925;SDS011;55732;52.248;-0.844;2023-03-31T15:21:25;4.10;;;1.70;;
62925;SDS011;55732;52.248;-0.844;2023-03-31T15:23:56;1.60;;;1.20;;
62925;SDS011;55732;52.248;-0.844;2023-03-31T15:26:24;3.40;;;1.50;;
62925;SDS011;55732;52.248;-0.844;2023-03-31T15:28:56;1.50;;;1.20;;
62925;SDS011;55732;52.248;-0.844;2023-03-31T15:31:26;1.90;;;1.10;;
62925;SDS011;55732;52.248;-0.844;2023-03-31T15:33:52;1.60;;;1.30;;
62925;SDS011;55732;52.248;-0.844;2023-03-31T15:36:18;3.50;;;1.30;;
62925;SDS011;55732;52.248;-0.844;2023-03-31T15:38:45;4.10;;;1.40;;
62925;SDS011;55732;52.248;-0.844;2023-03-31T15:41:16;1.30;;;1.10;;
62925;SDS011;55732;52.248;-0.844;2023-03-31T15:49:26;3.80;;;1.40;;
62925;SDS011;55732;52.248;-0.844;2023-03-31T15:51:53;3.50;;;1.40;;
62925;SDS011;55732;52.248;-0.844;2023-03-31T15:57:08;2.00;;;1.20;;
62925;SDS011;55732;52.248;-0.844;2023-03-31T15:59:46;2.90;;;1.80;;
62925;SDS011;55732;52.248;-0.844;2023-03-31T16:02:24;4.00;;;2.20;;
62925;SDS011;55732;52.248;-0.844;2023-03-31T16:04:56;2.30;;;1.80;;
62925;SDS011;55732;52.248;-0.844;2023-03-31T16:09:56;2.80;;;2.00;;
62925;SDS011;55732;52.248;-0.844;2023-03-31T16:12:36;2.90;;;2.00;;
62925;SDS011;55732;52.248;-0.844;2023-03-31T16:15:15;5.40;;;2.30;;
62925;SDS011;55732;52.248;-0.844;2023-03-31T16:17:54;2.90;;;2.10;;
62925;SDS011;55732;52.248;-0.844;2023-03-31T16:20:28;3.80;;;2.30;;
62925;SDS011;55732;52.248;-0.844;2023-03-31T16:23:01;4.80;;;2.60;;
62925;SDS011;55732;52.248;-0.844;2023-03-31T16:25:37;4.40;;;2.30;;
62925;SDS011;55732;52.248;-0.844;2023-03-31T16:28:04;4.80;;;2.30;;
62925;SDS011;55732;52.248;-0.844;2023-03-31T16:33:05;4.10;;;2.20;;
62925;SDS011;55732;52.248;-0.844;2023-03-31T16:35:33;5.50;;;2.80;;
62925;SDS011;55732;52.248;-0.844;2023-03-31T16:38:07;4.20;;;2.90;;
62925;SDS011;55732;52.248;-0.844;2023-03-31T16:40:37;5.40;;;3.10;;
62925;SDS011;55732;52.248;-0.844;2023-03-31T16:43:09;4.60;;;3.10;;
62925;SDS011;55732;52.248;-0.844;2023-03-31T16:45:38;7.00;;;3.90;;
62925;SDS011;55732;52.248;-0.844;2023-03-31T16:48:08;7.60;;;4.00;;
62925;SDS011;55732;52.248;-0.844;2023-03-31T16:50:33;7.60;;;4.30;;
62925;SDS011;55732;52.248;-0.844;2023-03-31T16:52:59;7.00;;;3.90;;
62925;SDS011;55732;52.248;-0.844;2023-03-31T16:55:25;7.80;;;4.60;;
62925;SDS011;55732;52.248;-0.844;2023-03-31T16:57:51;7.60;;;4.70;;
62925;SDS011;55732;52.248;-0.844;2023-03-31T17:00:17;7.80;;;4.00;;
62925;SDS011;55732;52.248;-0.844;2023-03-31T17:02:43;5.30;;;3.30;;
62925;SDS011;55732;52.248;-0.844;2023-03-31T17:05:08;7.30;;;4.30;;
62925;SDS011;55732;52.248;-0.844;2023-03-31T17:07:34;7.10;;;4.50;;
62925;SDS011;55732;52.248;-0.844;2023-03-31T17:09:59;8.90;;;4.20;;
62925;SDS011;55732;52.248;-0.844;2023-03-31T17:12:25;7.30;;;4.30;;
62925;SDS011;55732;52.248;-0.844;2023-03-31T17:14:50;5.70;;;4.20;;
62925;SDS011;55732;52.248;-0.844;2023-03-31T17:17:16;5.90;;;4.50;;
62925;SDS011;55732;52.248;-0.844;2023-03-31T17:19:41;5.50;;;4.00;;
62925;SDS011;55732;52.248;-0.844;2023-03-31T17:22:07;6.00;;;4.00;;
62925;SDS011;55732;52.248;-0.844;2023-03-31T17:24:32;5.00;;;3.60;;
62925;SDS011;55732;52.248;-0.844;2023-03-31T17:26:58;5.50;;;3.20;;
62925;SDS011;55732;52.248;-0.844;2023-03-31T17:29:23;5.60;;;3.60;;
62925;SDS011;55732;52.248;-0.844;2023-03-31T17:31:49;5.70;;;3.30;;
62925;SDS011;55732;52.248;-0.844;2023-03-31T17:34:14;5.80;;;3.20;;
62925;SDS011;55732;52.248;-0.844;2023-03-31T17:36:41;3.80;;;2.90;;
62925;SDS011;55732;52.248;-0.844;2023-03-31T17:39:08;6.00;;;3.40;;
62925;SDS011;55732;52.248;-0.844;2023-03-31T17:41:34;3.50;;;2.90;;
62925;SDS011;55732;52.248;-0.844;2023-03-31T17:44:00;7.00;;;3.50;;
62925;SDS011;55732;52.248;-0.844;2023-03-31T17:46:32;6.30;;;3.50;;
62925;SDS011;55732;52.248;-0.844;2023-03-31T17:48:59;10.20;;;3.60;;
62925;SDS011;55732;52.248;-0.844;2023-03-31T17:51:25;9.40;;;3.90;;
62925;SDS011;55732;52.248;-0.844;2023-03-31T17:53:51;6.30;;;3.60;;
62925;SDS011;55732;52.248;-0.844;2023-03-31T17:56:17;6.00;;;3.40;;
62925;SDS011;55732;52.248;-0.844;2023-03-31T17:58:43;6.90;;;3.70;;
62925;SDS011;55732;52.248;-0.844;2023-03-31T18:01:09;11.40;;;4.50;;
62925;SDS011;55732;52.248;-0.844;2023-03-31T18:03:35;6.00;;;3.60;;
62925;SDS011;55732;52.248;-0.844;2023-03-31T18:06:11;4.80;;;2.80;;
62925;SDS011;55732;52.248;-0.844;2023-03-31T18:08:38;4.50;;;2.70;;
62925;SDS011;55732;52.248;-0.844;2023-03-31T18:11:05;6.40;;;3.20;;
62925;SDS011;55732;52.248;-0.844;2023-03-31T18:13:33;4.20;;;2.60;;
62925;SDS011;55732;52.248;-0.844;2023-03-31T18:16:00;4.20;;;2.70;;
62925;SDS011;55732;52.248;-0.844;2023-03-31T18:18:27;5.40;;;2.90;;
62925;SDS011;55732;52.248;-0.844;2023-03-31T18:20:53;4.50;;;2.90;;
62925;SDS011;55732;52.248;-0.844;2023-03-31T18:23:20;3.70;;;2.70;;
62925;SDS011;55732;52.248;-0.844;2023-03-31T18:25:46;4.30;;;2.60;;
62925;SDS011;55732;52.248;-0.844;2023-03-31T18:28:13;5.30;;;3.00;;
62925;SDS011;55732;52.248;-0.844;2023-03-31T18:30:40;4.00;;;2.80;;
62925;SDS011;55732;52.248;-0.844;2023-03-31T18:33:08;5.40;;;3.00;;
62925;SDS011;55732;52.248;-0.844;2023-03-31T18:35:34;3.00;;;2.40;;
62925;SDS011;55732;52.248;-0.844;2023-03-31T18:38:00;5.50;;;2.80;;
62925;SDS011;55732;52.248;-0.844;2023-03-31T18:40:26;5.90;;;3.60;;
62925;SDS011;55732;52.248;-0.844;2023-03-31T18:42:52;5.40;;;3.10;;
62925;SDS011;55732;52.248;-0.844;2023-03-31T18:45:17;5.30;;;3.20;;